Time;durP1;ratioP1;P1;durP2;ratioP2;P2;SDS_P1;SDS_P2;PMS_P1;PMS_P2;Temp;Humidity;BMP_temperature;BMP_pressure;BME280_temperature;BME280_humidity;BME280_pressure;Samples;Min_cycle;Max_cycle;Signal;HPM_P1;HPM_P2
2021/06/18 00:01:05;;;;;;;5.50;2.50;;;;;;;23.21;43.43;96378.28;5040880;28;20045;-64
2021/06/18 00:03:30;;;;;;;6.05;2.83;;;;;;;23.08;43.93;96372.00;5039774;28;20052;-64
2021/06/18 00:05:55;;;;;;;5.15;2.65;;;;;;;22.70;45.90;96370.22;5040178;28;20040;-65
2021/06/18 00:08:21;;;;;;;3.72;2.45;;;;;;;22.60;45.58;96365.81;5049351;28;20929;-64
2021/06/18 00:10:46;;;;;;;5.85;2.38;;;;;;;22.56;46.02;96365.16;5033615;28;20037;-64
2021/06/18 00:13:12;;;;;;;4.15;2.55;;;;;;;22.52;46.00;96365.28;5041660;28;20075;-64
2021/06/18 00:15:37;;;;;;;7.65;2.70;;;;;;;22.53;46.31;96364.06;5039647;28;20049;-64
2021/06/18 00:18:03;;;;;;;3.60;2.42;;;;;;;22.50;47.40;96368.53;5039376;28;20131;-63
2021/06/18 00:20:28;;;;;;;9.80;3.00;;;;;;;22.38;48.95;96371.38;5027876;28;20067;-65
2021/06/18 00:22:54;;;;;;;4.05;2.40;;;;;;;22.23;50.22;96365.50;5059473;28;20088;-64
2021/06/18 00:25:19;;;;;;;4.28;2.55;;;;;;;22.15;50.52;96357.41;5050431;28;20087;-66
2021/06/18 00:27:45;;;;;;;4.38;2.30;;;;;;;22.08;50.59;96362.44;5056615;28;20045;-65
2021/06/18 00:30:11;;;;;;;4.35;2.65;;;;;;;21.89;50.05;96364.28;5054514;28;20047;-65
2021/06/18 00:32:37;;;;;;;4.90;2.80;;;;;;;21.89;49.72;96365.03;5038573;28;20045;-65
2021/06/18 00:35:03;;;;;;;8.98;2.83;;;;;;;22.05;48.06;96363.34;5035980;28;20090;-64
2021/06/18 00:37:28;;;;;;;4.28;2.35;;;;;;;22.23;46.88;96366.28;5057050;28;20048;-64
2021/06/18 00:39:55;;;;;;;6.80;2.90;;;;;;;22.27;46.98;96366.19;5045263;28;20063;-65
2021/06/18 00:42:20;;;;;;;5.00;2.33;;;;;;;22.35;48.37;96370.28;5034023;28;20064;-66
2021/06/18 00:44:46;;;;;;;4.00;2.47;;;;;;;22.15;48.46;96374.13;5033810;22;20089;-65
2021/06/18 00:47:19;;;;;;;5.85;2.97;;;;;;;22.27;50.52;96385.72;5032985;28;20563;-65
2021/06/18 00:49:45;;;;;;;5.50;3.17;;;;;;;22.07;50.48;96389.53;5035339;28;20048;-64
2021/06/18 00:52:11;;;;;;;6.10;3.00;;;;;;;21.99;50.04;96385.44;5033760;28;20045;-65
2021/06/18 00:54:39;;;;;;;6.22;3.10;;;;;;;22.16;49.56;96377.69;5035020;28;20422;-64
2021/06/18 00:57:05;;;;;;;7.63;2.53;;;;;;;22.18;49.09;96380.78;5021628;28;20080;-64
2021/06/18 00:59:30;;;;;;;8.63;2.97;;;;;;;22.05;50.42;96394.00;5025055;28;20049;-64
2021/06/18 01:01:56;;;;;;;4.70;2.85;;;;;;;21.80;51.87;96392.06;5022355;28;20136;-64
2021/06/18 01:04:25;;;;;;;6.10;2.92;;;;;;;21.54;52.99;96389.31;5017619;28;20757;-64
2021/06/18 01:06:57;;;;;;;3.40;2.60;;;;;;;21.44;54.30;96399.53;5015894;28;20045;-65
2021/06/18 01:09:23;;;;;;;8.63;3.03;;;;;;;21.22;55.40;96398.66;5014380;28;20050;-66
2021/06/18 01:12:13;;;;;;;6.28;2.90;;;;;;;21.10;55.85;96403.75;5036897;28;20088;-66
2021/06/18 01:14:45;;;;;;;8.13;2.63;;;;;;;21.20;56.42;96405.44;5035875;28;20409;-63
2021/06/18 01:17:28;;;;;;;4.80;2.70;;;;;;;21.14;56.96;96415.56;5027678;28;20033;-63
2021/06/18 01:19:53;;;;;;;10.63;3.17;;;;;;;20.87;57.96;96420.75;5033055;28;20109;-65
2021/06/18 01:22:21;;;;;;;5.53;2.88;;;;;;;20.73;58.69;96422.72;5018518;28;20041;-63
2021/06/18 01:24:54;;;;;;;6.53;3.22;;;;;;;20.73;59.21;96424.72;5032424;28;20041;-64
2021/06/18 01:27:32;;;;;;;6.00;2.97;;;;;;;20.52;59.59;96417.72;5041826;28;20047;-63
2021/06/18 01:30:16;;;;;;;6.53;3.10;;;;;;;20.53;60.06;96420.06;5045950;28;20041;-64
2021/06/18 01:32:51;;;;;;;7.85;3.25;;;;;;;20.47;60.33;96427.38;5036685;28;20065;-65
2021/06/18 01:35:18;;;;;;;5.93;3.35;;;;;;;20.43;60.47;96429.47;5028839;28;20038;-65
2021/06/18 01:37:48;;;;;;;8.60;3.45;;;;;;;20.38;60.20;96430.00;5016202;28;20056;-65
2021/06/18 01:40:15;;;;;;;6.32;3.00;;;;;;;19.93;61.25;96430.78;5027411;28;20041;-64
2021/06/18 01:42:44;;;;;;;9.23;3.60;;;;;;;19.98;61.59;96430.25;5024354;28;20077;-64
2021/06/18 01:45:14;;;;;;;5.43;3.40;;;;;;;19.97;61.36;96445.38;5021398;28;20045;-65
2021/06/18 01:47:42;;;;;;;5.05;3.35;;;;;;;19.91;61.58;96442.31;5029141;28;20063;-65
2021/06/18 01:50:10;;;;;;;7.68;3.53;;;;;;;19.73;62.47;96444.75;5026464;28;20037;-64
2021/06/18 01:52:39;;;;;;;5.30;2.83;;;;;;;19.64;62.75;96446.13;5040383;28;20125;-65
2021/06/18 01:55:06;;;;;;;;;;;;;;;19.52;62.63;96446.00;5030336;28;20048;-65
2021/06/18 01:57:33;;;;;;;5.70;3.50;;;;;;;19.39;63.43;96446.72;5037046;28;19912;-64
2021/06/18 02:00:00;;;;;;;8.02;3.65;;;;;;;19.35;64.16;96457.09;5021894;28;20051;-64
2021/06/18 02:02:28;;;;;;;9.90;3.75;;;;;;;19.45;63.84;96455.31;5026410;28;20046;-64
2021/06/18 02:04:56;;;;;;;7.35;3.38;;;;;;;19.30;64.19;96454.81;5019775;28;20045;-64
2021/06/18 02:07:24;;;;;;;5.78;3.17;;;;;;;19.13;64.92;96439.34;5004347;28;20292;-63
2021/06/18 02:09:50;;;;;;;4.57;3.45;;;;;;;19.02;65.48;96440.38;5033657;28;20037;-65
2021/06/18 02:12:16;;;;;;;5.50;3.28;;;;;;;19.14;65.40;96440.91;5029725;28;20136;-63
2021/06/18 02:14:43;;;;;;;4.55;3.22;;;;;;;19.23;64.23;96443.88;5033536;28;20109;-64
2021/06/18 02:17:09;;;;;;;5.03;3.13;;;;;;;19.02;65.98;96431.25;5033571;28;20042;-65
2021/06/18 02:19:37;;;;;;;5.82;3.80;;;;;;;18.89;66.52;96440.22;5009883;28;20099;-64
2021/06/18 02:22:08;;;;;;;5.05;3.30;;;;;;;18.63;67.43;96441.91;5034743;28;20041;-65
2021/06/18 02:24:35;;;;;;;6.53;3.88;;;;;;;18.69;68.18;96451.31;5043564;28;20033;-63
2021/06/18 02:27:03;;;;;;;8.65;3.13;;;;;;;18.97;67.17;96445.63;5026573;28;20040;-65
2021/06/18 02:29:30;;;;;;;9.90;3.95;;;;;;;19.10;66.48;96449.31;5040424;28;20037;-64
2021/06/18 02:31:58;;;;;;;7.75;3.90;;;;;;;19.36;65.05;96438.47;5024957;28;20116;-64
2021/06/18 02:34:23;;;;;;;7.30;3.75;;;;;;;19.60;64.40;96445.41;5026018;28;20188;-64
2021/06/18 02:36:49;;;;;;;4.97;3.45;;;;;;;19.65;64.23;96456.00;5042065;28;20047;-63
2021/06/18 02:39:14;;;;;;;12.10;3.78;;;;;;;19.44;64.54;96448.94;5029742;28;20140;-64
2021/06/18 02:41:41;;;;;;;6.57;3.92;;;;;;;18.96;67.46;96460.72;5040680;28;20804;-63
2021/06/18 02:44:07;;;;;;;8.25;4.05;;;;;;;18.34;69.83;96455.53;5039298;28;20045;-65
2021/06/18 02:46:54;;;;;;;8.73;3.55;;;;;;;18.38;69.56;96452.69;5055700;28;20047;-65
2021/06/18 02:49:32;;;;;;;5.28;3.75;;;;;;;18.31;70.00;96456.38;4991509;28;20052;-64
2021/06/18 02:52:05;;;;;;;7.03;3.20;;;;;;;18.23;70.28;96466.03;5008263;28;20237;-64
2021/06/18 02:54:52;;;;;;;7.50;4.03;;;;;;;18.21;70.17;96469.22;4985083;28;20069;-65
2021/06/18 02:57:20;;;;;;;5.88;3.63;;;;;;;18.22;70.69;96467.22;4998223;28;20042;-64
2021/06/18 03:00:04;;;;;;;4.90;3.70;;;;;;;18.31;71.12;96470.22;5004678;28;20046;-64
2021/06/18 03:02:34;;;;;;;4.78;3.28;;;;;;;18.34;71.00;96478.47;5022288;28;20045;-65
2021/06/18 03:05:01;;;;;;;;;;;;;;;18.23;71.60;96479.91;5030685;28;20557;-65
2021/06/18 03:07:29;;;;;;;6.13;3.70;;;;;;;18.14;72.24;96480.44;5021670;28;19921;-65
2021/06/18 03:10:00;;;;;;;9.50;3.72;;;;;;;18.31;72.14;96484.91;5019035;28;20041;-66
2021/06/18 03:12:27;;;;;;;6.38;3.60;;;;;;;18.44;71.07;96487.03;5034670;28;20049;-63
2021/06/18 03:15:01;;;;;;;7.55;3.72;;;;;;;18.51;70.73;96495.22;5016745;28;20068;-65
2021/06/18 03:17:28;;;;;;;9.15;4.00;;;;;;;18.61;70.53;96491.47;5003020;28;20053;-64
2021/06/18 03:20:06;;;;;;;6.53;3.83;;;;;;;18.53;70.38;96492.84;5036957;28;20049;-65
2021/06/18 03:22:33;;;;;;;9.18;3.67;;;;;;;18.07;72.56;96489.66;5044774;28;20891;-66
2021/06/18 03:25:02;;;;;;;6.85;3.72;;;;;;;18.07;72.77;96499.97;5021390;28;20064;-66
2021/06/18 03:27:29;;;;;;;6.93;3.97;;;;;;;18.04;73.04;96493.28;5022368;28;20135;-65
2021/06/18 03:29:55;;;;;;;5.97;3.67;;;;;;;18.02;73.43;96494.88;5032322;28;20698;-64
2021/06/18 03:32:23;;;;;;;6.75;4.10;;;;;;;17.83;74.10;96488.81;5028426;28;20049;-65
2021/06/18 03:34:49;;;;;;;8.70;4.40;;;;;;;17.48;74.99;96490.91;5022007;28;20068;-63
2021/06/18 03:37:16;;;;;;;7.80;4.45;;;;;;;17.40;75.39;96492.22;5017459;28;20083;-64
2021/06/18 03:39:42;;;;;;;7.70;4.30;;;;;;;17.46;74.26;96493.31;5010513;28;20041;-64
2021/06/18 03:42:08;;;;;;;8.20;4.05;;;;;;;17.46;73.33;96487.78;5032117;28;20048;-62
2021/06/18 03:44:34;;;;;;;9.80;4.25;;;;;;;17.54;73.39;96496.78;5033892;28;20055;-63
2021/06/18 03:47:02;;;;;;;7.82;4.72;;;;;;;17.64;72.38;96484.75;5004104;28;20044;-62
2021/06/18 03:49:28;;;;;;;10.25;4.40;;;;;;;17.88;72.56;96493.13;5025460;28;20088;-64
2021/06/18 03:51:55;;;;;;;8.90;4.20;;;;;;;18.26;71.46;96493.69;5046827;28;20052;-63
2021/06/18 03:54:22;;;;;;;9.27;4.57;;;;;;;18.66;70.15;96490.22;5005676;28;20123;-64
2021/06/18 03:56:49;;;;;;;5.68;3.88;;;;;;;18.85;69.56;96485.91;5007143;28;20045;-64
2021/06/18 03:59:19;;;;;;;12.25;4.95;;;;;;;18.93;69.47;96492.88;5022462;28;20069;-64
2021/06/18 04:01:49;;;;;;;6.40;3.97;;;;;;;18.66;70.47;96491.00;5033549;28;20045;-65
2021/06/18 04:04:15;;;;;;;8.57;3.85;;;;;;;18.87;70.37;96486.25;5035887;28;20052;-65
2021/06/18 04:06:40;;;;;;;7.90;3.70;;;;;;;19.11;69.22;96495.28;5041825;28;20404;-65
2021/06/18 04:09:06;;;;;;;7.22;3.70;;;;;;;19.37;68.36;96499.09;5010215;28;20036;-63
2021/06/18 04:11:34;;;;;;;7.63;4.13;;;;;;;19.25;68.30;96505.34;5031026;28;20045;-64
2021/06/18 04:14:00;;;;;;;7.43;4.55;;;;;;;19.08;68.83;96496.91;5027247;28;20045;-64
2021/06/18 04:16:26;;;;;;;9.93;4.40;;;;;;;18.65;70.55;96500.50;5015979;28;20041;-64
2021/06/18 04:18:53;;;;;;;7.72;4.45;;;;;;;18.93;69.92;96494.88;5026400;28;20386;-64
2021/06/18 04:21:22;;;;;;;10.40;4.53;;;;;;;19.32;68.31;96502.41;5031132;28;20063;-65
2021/06/18 04:23:48;;;;;;;8.73;4.60;;;;;;;19.36;66.47;96503.09;5045662;28;20041;-65
2021/06/18 04:26:13;;;;;;;9.57;4.20;;;;;;;19.64;66.29;96492.56;5028664;28;20457;-65
2021/06/18 04:28:39;;;;;;;11.30;4.32;;;;;;;19.83;66.62;96494.53;5027408;28;20041;-63
2021/06/18 04:31:06;;;;;;;9.73;4.43;;;;;;;19.85;66.90;96492.09;5029636;28;20056;-65
2021/06/18 04:33:32;;;;;;;8.68;4.03;;;;;;;20.02;65.76;96490.13;5048600;28;20041;-65
2021/06/18 04:35:57;;;;;;;7.45;4.10;;;;;;;20.31;65.29;96494.97;5035891;28;20048;-64
2021/06/18 04:38:23;;;;;;;11.13;4.20;;;;;;;20.74;63.44;96507.78;5032049;28;20537;-63
2021/06/18 04:40:50;;;;;;;7.90;4.30;;;;;;;21.05;62.48;96510.13;5036451;28;20060;-64
2021/06/18 04:43:16;;;;;;;8.02;4.25;;;;;;;21.28;61.10;96519.41;5034166;28;20041;-65
2021/06/18 04:45:41;;;;;;;13.98;5.72;;;;;;;20.02;66.68;96525.44;5036757;28;20066;-65
2021/06/18 04:48:07;;;;;;;8.35;5.10;;;;;;;19.83;67.44;96522.31;5029526;28;20041;-62
2021/06/18 04:50:33;;;;;;;11.55;4.72;;;;;;;20.22;66.97;96523.38;5036558;28;20433;-65
2021/06/18 04:52:59;;;;;;;14.15;4.50;;;;;;;19.80;68.50;96527.97;5029887;28;20389;-64
2021/06/18 04:55:24;;;;;;;10.98;5.43;;;;;;;19.52;68.98;96532.13;5030589;28;20506;-63
2021/06/18 04:57:50;;;;;;;10.65;4.65;;;;;;;20.37;64.41;96528.59;5036969;28;20117;-63
2021/06/18 05:00:16;;;;;;;7.22;4.85;;;;;;;20.31;65.72;96519.19;5035913;28;20044;-65
2021/06/18 05:02:43;;;;;;;9.13;5.18;;;;;;;20.91;64.14;96513.31;5030231;28;20045;-64
2021/06/18 05:05:09;;;;;;;8.48;4.47;;;;;;;22.55;58.95;96515.09;5038095;28;20041;-63
2021/06/18 05:07:34;;;;;;;7.10;4.07;;;;;;;23.93;54.29;96512.47;5033305;28;20055;-64
2021/06/18 05:10:00;;;;;;;5.90;3.85;;;;;;;25.12;50.30;96507.53;5023188;28;20577;-63
2021/06/18 05:12:25;;;;;;;7.97;3.88;;;;;;;26.09;47.52;96503.09;5027383;28;20046;-63
2021/06/18 05:14:51;;;;;;;10.93;3.95;;;;;;;27.03;45.29;96505.59;5025274;28;20045;-63
2021/06/18 05:17:17;;;;;;;8.68;3.58;;;;;;;28.43;42.31;96502.78;5023251;28;20050;-64
2021/06/18 05:19:42;;;;;;;8.23;4.25;;;;;;;29.82;39.13;96503.31;5034538;28;20537;-64
2021/06/18 05:22:08;;;;;;;10.48;3.17;;;;;;;30.48;37.69;96504.28;5019678;28;20069;-63
2021/06/18 05:24:33;;;;;;;4.53;2.72;;;;;;;31.33;36.11;96513.91;5003737;28;20667;-64
2021/06/18 05:26:59;;;;;;;6.28;3.28;;;;;;;31.02;36.60;96509.19;5017308;28;20127;-64
2021/06/18 05:29:25;;;;;;;12.80;3.10;;;;;;;31.05;36.79;96503.28;5037931;28;20060;-64
2021/06/18 05:31:50;;;;;;;9.57;3.47;;;;;;;31.06;36.43;96498.38;5026068;28;20407;-64
2021/06/18 05:34:16;;;;;;;5.30;3.05;;;;;;;30.94;37.57;96505.31;5028978;28;20029;-65
2021/06/18 05:36:44;;;;;;;5.50;2.92;;;;;;;31.07;36.14;96508.44;5046537;28;20041;-64
2021/06/18 05:39:14;;;;;;;7.30;3.15;;;;;;;32.79;33.26;96517.19;5038324;28;20489;-64
2021/06/18 05:41:39;;;;;;;6.03;2.78;;;;;;;33.48;31.63;96505.00;5023979;28;20053;-63
2021/06/18 05:44:06;;;;;;;11.15;3.03;;;;;;;33.77;30.80;96514.09;5020914;28;20560;-62
2021/06/18 05:46:31;;;;;;;6.47;3.13;;;;;;;32.62;33.29;96517.25;5020864;28;20116;-64
2021/06/18 05:48:57;;;;;;;6.65;3.60;;;;;;;32.10;33.79;96525.03;5035659;28;20042;-65
2021/06/18 05:51:23;;;;;;;10.43;3.13;;;;;;;33.05;32.21;96520.44;5031687;28;20114;-64
2021/06/18 05:53:48;;;;;;;5.95;3.20;;;;;;;33.51;30.84;96523.78;5042461;28;20036;-64
2021/06/18 05:56:14;;;;;;;4.88;2.80;;;;;;;33.05;31.69;96520.44;5038479;28;20262;-64
2021/06/18 05:58:39;;;;;;;6.68;2.90;;;;;;;32.58;32.67;96526.78;5026426;28;20037;-65
2021/06/18 06:01:04;;;;;;;7.50;3.00;;;;;;;33.84;31.26;96527.75;5035319;28;20056;-66
2021/06/18 06:03:30;;;;;;;5.68;2.88;;;;;;;35.36;28.62;96519.66;5029214;28;20106;-65
2021/06/18 06:05:58;;;;;;;5.60;2.58;;;;;;;34.59;29.48;96526.53;5022654;28;20136;-65
2021/06/18 06:08:23;;;;;;;5.25;2.88;;;;;;;35.83;28.09;96521.31;5016245;28;20588;-65
2021/06/18 06:10:49;;;;;;;11.85;2.92;;;;;;;36.49;26.07;96527.19;5036699;28;20053;-64
2021/06/18 06:13:19;;;;;;;4.40;3.05;;;;;;;34.42;28.90;96518.94;5042004;28;20520;-66
2021/06/18 06:15:46;;;;;;;9.50;2.92;;;;;;;31.68;34.63;96540.22;5030314;28;20466;-64
2021/06/18 06:18:12;;;;;;;10.27;3.30;;;;;;;30.88;36.38;96539.16;5022419;28;20124;-65
2021/06/18 06:20:38;;;;;;;11.45;3.17;;;;;;;32.63;32.70;96538.63;5030407;28;20122;-65
2021/06/18 06:23:03;;;;;;;6.97;3.70;;;;;;;33.60;31.29;96528.38;5028179;28;20091;-67
2021/06/18 06:25:29;;;;;;;8.68;3.80;;;;;;;34.99;29.11;96527.63;5005107;28;20049;-63
2021/06/18 06:27:55;;;;;;;10.38;3.75;;;;;;;35.81;27.70;96527.56;5021886;28;20056;-65
2021/06/18 06:30:21;;;;;;;8.90;3.38;;;;;;;35.65;27.46;96526.47;5015544;28;20103;-66
2021/06/18 06:32:46;;;;;;;4.40;2.70;;;;;;;35.37;27.18;96513.44;5031067;28;20050;-64
2021/06/18 06:35:12;;;;;;;4.50;2.78;;;;;;;34.51;28.98;96523.50;5037097;28;20052;-65
2021/06/18 06:37:37;;;;;;;11.93;3.25;;;;;;;35.16;27.66;96521.72;5042857;28;20037;-65
2021/06/18 06:40:03;;;;;;;6.57;3.53;;;;;;;35.71;26.92;96529.25;5041935;28;20041;-66
2021/06/18 06:42:29;;;;;;;5.60;3.10;;;;;;;35.68;26.47;96525.41;5044783;28;20152;-65
2021/06/18 06:44:54;;;;;;;6.70;3.00;;;;;;;35.42;27.16;96532.53;5042245;28;20049;-64
2021/06/18 06:47:20;;;;;;;6.35;2.67;;;;;;;35.34;27.06;96531.59;5016068;28;20099;-65
2021/06/18 06:49:46;;;;;;;6.60;3.50;;;;;;;34.31;28.51;96536.13;5022691;28;20037;-65
2021/06/18 06:52:12;;;;;;;6.88;3.17;;;;;;;33.01;30.57;96544.69;4988216;28;20401;-64
2021/06/18 06:54:37;;;;;;;9.52;2.90;;;;;;;33.60;30.30;96545.41;5021031;28;20048;-65
2021/06/18 06:57:03;;;;;;;6.18;3.60;;;;;;;32.01;32.22;96542.28;5038507;28;20045;-67
2021/06/18 06:59:28;;;;;;;7.85;3.40;;;;;;;32.49;31.93;96538.38;5026542;28;20114;-65
2021/06/18 07:01:54;;;;;;;6.63;3.47;;;;;;;29.31;38.10;96536.69;5034071;28;20502;-65
2021/06/18 07:04:19;;;;;;;5.18;3.53;;;;;;;31.49;34.75;96529.38;5036190;28;20037;-66
2021/06/18 07:06:45;;;;;;;5.28;3.25;;;;;;;32.37;32.34;96531.97;5043595;28;20048;-65
2021/06/18 07:09:11;;;;;;;4.93;3.28;;;;;;;29.58;37.50;96529.78;5011627;28;20124;-64
2021/06/18 07:11:37;;;;;;;9.63;3.50;;;;;;;30.36;37.00;96536.59;5039644;28;20049;-65
2021/06/18 07:14:02;;;;;;;8.20;4.32;;;;;;;27.68;41.78;96537.94;5012212;28;20069;-66
2021/06/18 07:16:28;;;;;;;10.32;4.05;;;;;;;27.52;42.65;96537.19;5023794;28;20106;-64
2021/06/18 07:18:54;;;;;;;6.88;3.92;;;;;;;27.32;42.40;96549.09;5012738;28;20060;-64
2021/06/18 07:21:20;;;;;;;7.75;4.45;;;;;;;27.90;41.75;96549.63;5011597;28;20124;-64
2021/06/18 07:23:45;;;;;;;8.38;4.03;;;;;;;30.00;38.13;96542.50;5033751;28;20076;-64
2021/06/18 07:26:11;;;;;;;7.72;4.18;;;;;;;30.37;36.59;96538.16;5027930;28;20087;-64
2021/06/18 07:28:36;;;;;;;9.63;3.80;;;;;;;28.49;40.70;96534.63;5037420;28;20775;-65
2021/06/18 07:31:02;;;;;;;7.60;3.80;;;;;;;29.73;38.98;96529.66;5028084;28;20051;-64
2021/06/18 07:33:28;;;;;;;6.10;3.40;;;;;;;29.89;39.09;96531.09;5026443;28;20044;-63
2021/06/18 07:35:53;;;;;;;7.38;4.28;;;;;;;28.68;41.36;96540.78;5020774;28;20099;-63
2021/06/18 07:38:18;;;;;;;9.57;4.32;;;;;;;27.52;44.09;96540.00;5016661;28;20037;-62
2021/06/18 07:40:44;;;;;;;7.15;3.63;;;;;;;29.74;39.76;96534.81;5030891;28;20128;-64
2021/06/18 07:43:09;;;;;;;7.55;3.70;;;;;;;30.80;37.70;96529.63;5033126;28;20048;-61
2021/06/18 07:45:35;;;;;;;7.80;4.03;;;;;;;31.69;34.94;96536.84;5020206;28;20053;-65
2021/06/18 07:48:02;;;;;;;6.97;4.03;;;;;;;31.67;34.87;96530.19;5035186;28;20044;-65
2021/06/18 07:50:28;;;;;;;6.53;4.00;;;;;;;28.53;41.55;96534.44;5054634;28;20045;-64
2021/06/18 07:52:53;;;;;;;9.15;4.10;;;;;;;28.73;41.06;96533.69;5030539;28;20056;-63
2021/06/18 07:55:23;;;;;;;7.70;4.65;;;;;;;27.45;44.77;96529.91;5021045;28;20563;-64
2021/06/18 07:57:50;;;;;;;5.70;3.90;;;;;;;29.87;39.91;96530.81;5038639;28;20033;-64
2021/06/18 08:00:17;;;;;;;5.30;3.83;;;;;;;31.57;36.22;96532.50;5018189;28;20049;-63
2021/06/18 08:02:43;;;;;;;6.90;3.60;;;;;;;33.53;31.95;96538.25;4986348;28;20049;-65
2021/06/18 08:05:12;;;;;;;6.53;3.63;;;;;;;33.65;31.25;96534.06;5015971;28;20045;-65
2021/06/18 08:07:39;;;;;;;7.85;3.70;;;;;;;33.55;30.57;96532.81;5022652;28;20064;-63
2021/06/18 08:10:06;;;;;;;6.82;3.53;;;;;;;34.52;29.69;96530.75;5019269;28;20082;-63
2021/06/18 08:12:32;;;;;;;8.05;3.60;;;;;;;34.31;30.50;96533.28;5030047;28;20045;-64
2021/06/18 08:14:57;;;;;;;7.55;3.63;;;;;;;33.72;31.22;96529.88;5040055;28;20068;-65
2021/06/18 08:17:22;;;;;;;5.03;3.30;;;;;;;34.72;29.04;96525.88;5035485;28;20167;-64
2021/06/18 08:19:48;;;;;;;8.20;3.72;;;;;;;34.25;29.73;96521.19;5040841;28;20405;-64
2021/06/18 08:22:13;;;;;;;8.15;3.47;;;;;;;31.40;35.40;96524.72;5029704;28;20516;-63
2021/06/18 08:24:39;;;;;;;7.60;4.10;;;;;;;31.96;34.82;96521.19;4999462;28;20048;-63
2021/06/18 08:27:05;;;;;;;9.05;4.20;;;;;;;31.95;33.28;96524.53;5019718;28;20048;-64
2021/06/18 08:29:30;;;;;;;8.50;4.05;;;;;;;29.58;38.90;96515.66;5032152;28;20037;-64
2021/06/18 08:31:56;;;;;;;5.97;3.78;;;;;;;28.71;40.64;96514.44;5021780;28;20047;-63
2021/06/18 08:34:21;;;;;;;5.88;3.95;;;;;;;29.85;39.62;96510.78;5020636;28;20630;-64
2021/06/18 08:36:47;;;;;;;7.57;4.72;;;;;;;28.82;40.60;96499.72;5030448;28;20457;-62
2021/06/18 08:39:13;;;;;;;8.73;4.45;;;;;;;28.93;41.18;96505.47;5027962;28;20042;-63
2021/06/18 08:41:38;;;;;;;7.30;4.40;;;;;;;29.43;39.58;96506.56;5033975;28;20049;-63
2021/06/18 08:44:04;;;;;;;7.63;4.13;;;;;;;29.55;40.42;96508.22;5033164;28;20413;-64
2021/06/18 08:46:30;;;;;;;11.98;4.30;;;;;;;29.49;40.32;96513.00;5038168;28;20103;-64
2021/06/18 08:48:56;;;;;;;9.98;3.97;;;;;;;27.71;41.47;96506.81;5023743;28;20077;-62
2021/06/18 08:51:22;;;;;;;6.57;4.00;;;;;;;28.14;41.70;96512.88;5021238;28;20588;-64
2021/06/18 08:53:48;;;;;;;8.27;4.47;;;;;;;28.14;41.43;96509.28;5033815;28;20056;-63
2021/06/18 08:56:13;;;;;;;7.28;4.25;;;;;;;29.22;39.28;96506.59;5015943;28;20520;-65
2021/06/18 08:58:39;;;;;;;5.40;4.13;;;;;;;27.95;42.19;96520.78;5032391;28;20104;-65
2021/06/18 09:01:05;;;;;;;10.75;4.38;;;;;;;28.48;42.05;96516.16;5013434;28;20388;-63
2021/06/18 09:03:35;;;;;;;10.38;4.65;;;;;;;28.94;40.52;96514.75;5017065;28;20105;-63
2021/06/18 09:06:01;;;;;;;7.47;4.43;;;;;;;29.48;39.27;96509.44;5020201;28;20037;-63
2021/06/18 09:08:27;;;;;;;11.85;4.60;;;;;;;30.31;37.56;96513.44;5014203;28;20098;-65
2021/06/18 09:10:52;;;;;;;9.70;3.65;;;;;;;30.35;38.11;96513.22;5025819;28;20124;-64
2021/06/18 09:13:23;;;;;;;6.50;3.95;;;;;;;29.62;37.76;96509.78;5020706;28;20042;-63
2021/06/18 09:15:52;;;;;;;9.93;4.20;;;;;;;30.14;37.37;96506.88;5026775;28;20044;-64
2021/06/18 09:18:32;;;;;;;5.97;3.70;;;;;;;30.47;36.31;96511.25;5030832;28;20049;-63
2021/06/18 09:21:09;;;;;;;8.48;4.57;;;;;;;30.04;40.06;96508.38;5038659;28;20063;-63
2021/06/18 09:23:44;;;;;;;11.25;8.25;;;;;;;30.80;39.64;96498.53;5029448;28;20533;-65
2021/06/18 09:26:21;;;;;;;10.40;6.60;;;;;;;30.74;38.65;96500.56;5018015;28;20041;-63
2021/06/18 09:28:56;;;;;;;7.82;4.57;;;;;;;30.99;38.36;96504.53;5007640;28;20049;-64
2021/06/18 09:31:25;;;;;;;8.88;3.92;;;;;;;30.71;38.73;96502.34;5021208;28;20038;-64
2021/06/18 09:33:51;;;;;;;12.50;4.57;;;;;;;31.05;38.53;96500.44;5026458;28;20049;-64
2021/06/18 09:36:16;;;;;;;6.50;4.00;;;;;;;31.09;38.21;96503.03;5020012;28;20068;-65
2021/06/18 09:38:43;;;;;;;9.38;4.55;;;;;;;31.26;38.24;96505.91;5029420;28;20041;-64
2021/06/18 09:41:36;;;;;;;9.25;4.95;;;;;;;31.67;37.21;96504.69;5020170;28;20056;-63
2021/06/18 09:44:07;;;;;;;11.73;4.60;;;;;;;31.89;37.14;96504.72;5024022;28;20417;-63
2021/06/18 09:46:41;;;;;;;13.55;4.78;;;;;;;31.81;36.76;96500.84;5023412;28;20105;-66
2021/06/18 09:49:06;;;;;;;7.05;4.20;;;;;;;32.05;34.84;96503.16;5018583;28;20488;-63
2021/06/18 09:51:31;;;;;;;6.03;4.35;;;;;;;31.73;36.37;96497.75;5022147;28;20060;-62
2021/06/18 09:54:16;;;;;;;11.90;4.50;;;;;;;31.51;37.87;96504.19;5035059;28;20033;-62
2021/06/18 09:56:42;;;;;;;8.18;4.57;;;;;;;31.37;38.21;96508.00;5034730;28;20045;-62
2021/06/18 09:59:21;;;;;;;9.25;5.07;;;;;;;31.42;38.10;96502.34;5040040;28;20037;-63
2021/06/18 10:01:52;;;;;;;15.03;4.53;;;;;;;31.35;37.57;96502.84;5045806;28;20056;-64
2021/06/18 10:04:18;;;;;;;13.48;6.90;;;;;;;31.54;36.68;96497.47;5040121;28;20357;-64
2021/06/18 10:06:43;;;;;;;6.50;5.00;;;;;;;31.70;37.16;96500.84;5040509;28;20041;-65
2021/06/18 10:09:11;;;;;;;8.88;5.28;;;;;;;31.69;37.49;96504.94;5031979;28;20047;-63
2021/06/18 10:11:41;;;;;;;8.98;5.00;;;;;;;31.73;37.33;96496.97;5043808;28;20493;-63
2021/06/18 10:14:07;;;;;;;8.63;6.00;;;;;;;31.83;36.82;96495.44;5039983;28;20041;-63
2021/06/18 10:16:33;;;;;;;8.13;4.97;;;;;;;31.99;35.93;96496.72;5041012;28;20046;-63
2021/06/18 10:19:00;;;;;;;9.20;5.35;;;;;;;32.14;36.12;96493.63;5031265;28;20048;-64
2021/06/18 10:21:28;;;;;;;7.50;4.63;;;;;;;32.08;35.82;96495.69;5019165;28;20049;-64
2021/06/18 10:24:00;;;;;;;13.00;4.78;;;;;;;32.54;35.28;96489.41;5034717;28;20414;-64
2021/06/18 10:26:27;;;;;;;6.68;4.60;;;;;;;33.05;34.46;96491.28;5028795;28;20110;-62
2021/06/18 10:28:55;;;;;;;9.65;3.90;;;;;;;32.91;35.09;96496.00;5034846;28;20041;-64
2021/06/18 10:31:32;;;;;;;6.47;4.05;;;;;;;32.76;34.83;96499.16;5030557;28;20044;-65
2021/06/18 10:34:15;;;;;;;10.52;5.18;;;;;;;31.80;36.31;96502.91;5033502;28;20037;-64
2021/06/18 10:36:42;;;;;;;9.90;4.75;;;;;;;31.66;37.56;96506.75;5031467;28;20080;-63
2021/06/18 10:39:13;;;;;;;6.00;4.28;;;;;;;31.37;37.35;96494.63;5021548;28;20565;-64
2021/06/18 10:41:57;;;;;;;7.22;4.80;;;;;;;31.46;37.58;96490.78;5042858;28;20403;-64
2021/06/18 10:44:39;;;;;;;8.27;4.43;;;;;;;31.19;38.27;96492.28;5037431;28;21048;-63
2021/06/18 10:47:25;;;;;;;7.82;4.20;;;;;;;31.01;37.63;96490.69;5029963;28;20144;-63
2021/06/18 10:49:52;;;;;;;9.45;4.97;;;;;;;30.89;37.57;96481.34;4993728;28;20041;-64
2021/06/18 10:52:19;;;;;;;8.85;4.57;;;;;;;30.86;38.09;96480.31;5037858;28;20497;-64
2021/06/18 10:54:49;;;;;;;6.90;5.18;;;;;;;30.40;38.95;96486.28;5042632;28;20041;-63
2021/06/18 10:57:25;;;;;;;10.13;4.90;;;;;;;30.78;38.97;96476.44;5038663;28;20095;-63
2021/06/18 10:59:52;;;;;;;9.23;4.82;;;;;;;31.08;38.28;96478.88;5043604;28;20055;-64
2021/06/18 11:02:26;;;;;;;9.90;5.15;;;;;;;31.13;37.27;96469.59;5044696;28;20041;-63
2021/06/18 11:04:56;;;;;;;5.75;4.65;;;;;;;31.45;36.88;96473.00;5047811;28;20045;-64
2021/06/18 11:07:31;;;;;;;9.98;4.97;;;;;;;31.42;37.70;96470.41;5032884;28;20914;-63
2021/06/18 11:10:03;;;;;;;8.60;4.80;;;;;;;31.13;37.65;96469.59;5051190;28;20045;-64
2021/06/18 11:12:29;;;;;;;8.77;4.72;;;;;;;31.13;38.54;96468.84;5054854;28;20049;-63
2021/06/18 11:14:57;;;;;;;10.40;4.88;;;;;;;31.38;38.12;96469.91;5033741;28;20048;-65
2021/06/18 11:17:49;;;;;;;8.38;4.97;;;;;;;31.09;37.89;96471.91;5028623;28;20588;-64
2021/06/18 11:20:18;;;;;;;9.93;5.20;;;;;;;31.05;38.47;96474.22;5000790;28;20046;-62
2021/06/18 11:22:50;;;;;;;;;;;;;;;31.11;38.53;96479.91;4990974;28;20379;-63
2021/06/18 11:25:41;;;;;;;8.43;5.10;;;;;;;30.73;38.26;96468.69;5029209;28;19985;-64
2021/06/18 11:28:22;;;;;;;8.25;4.50;;;;;;;31.01;38.45;96466.00;5038283;28;20041;-63
2021/06/18 11:30:59;;;;;;;7.15;4.65;;;;;;;31.13;37.25;96466.78;5037778;28;20045;-63
2021/06/18 11:33:37;;;;;;;8.07;4.40;;;;;;;31.21;37.10;96462.19;5017883;28;20625;-63
2021/06/18 11:36:06;;;;;;;8.77;5.25;;;;;;;31.07;37.24;96466.00;5028224;28;20057;-62
2021/06/18 11:38:32;;;;;;;6.45;4.45;;;;;;;30.67;38.16;96453.78;5022057;28;20041;-63